Time;durP1;ratioP1;P1;durP2;ratioP2;P2;SDS_P1;SDS_P2;PMS_P1;PMS_P2;Temp;Humidity;BMP_temperature;BMP_pressure;BME280_temperature;BME280_humidity;BME280_pressure;Samples;Min_cycle;Max_cycle;Signal;HPM_P1;HPM_P2
2022/10/29 00:00:16;;;;;;;;;7.00;6.00;;;;;21.93;63.01;101137.96;105767;1288;20404;-51
2022/10/29 00:03:03;;;;;;;;;5.00;5.00;;;;;21.93;62.89;101139.56;105803;1294;22069;-55
2022/10/29 00:05:30;;;;;;;;;5.00;5.00;;;;;21.92;62.87;101142.39;105713;1279;19897;-55
2022/10/29 00:07:58;;;;;;;;;9.00;9.00;;;;;21.93;63.08;101139.29;105795;1288;20131;-55
2022/10/29 00:10:25;;;;;;;;;6.00;5.00;;;;;21.93;62.76;101141.23;105793;1279;21065;-54
2022/10/29 00:13:10;;;;;;;;;8.50;8.00;;;;;21.93;62.64;101142.28;105786;1294;18473;-56
2022/10/29 00:15:37;;;;;;;;;5.00;5.00;;;;;21.92;62.77;101136.84;105829;1286;20058;-55
2022/10/29 00:18:04;;;;;;;;;8.00;6.00;;;;;21.91;62.83;101136.67;105781;1288;22034;-56
2022/10/29 00:20:50;;;;;;;;;5.00;5.00;;;;;21.92;62.78;101132.48;105777;1294;22370;-56
2022/10/29 00:23:17;;;;;;;;;5.50;5.00;;;;;21.91;62.78;101132.84;105758;1295;18697;-57
2022/10/29 00:25:44;;;;;;;;;6.00;5.00;;;;;21.92;62.83;101134.66;105733;1279;19737;-52
2022/10/29 00:28:11;;;;;;;;;5.00;5.00;;;;;21.91;62.87;101133.39;105801;1272;19913;-53
2022/10/29 00:30:38;;;;;;;;;5.50;5.50;;;;;21.91;62.89;101136.23;105845;1279;18643;-55
2022/10/29 00:33:24;;;;;;;;;5.00;4.00;;;;;21.91;62.69;101136.91;105755;1294;19384;-55
2022/10/29 00:35:51;;;;;;;;;5.00;5.00;;;;;21.91;62.74;101129.10;105768;1294;20281;-56
2022/10/29 00:38:18;;;;;;;;;5.00;3.00;;;;;21.91;62.82;101127.98;105797;1274;22632;-53
2022/10/29 00:40:45;;;;;;;;;9.00;7.00;;;;;21.92;62.64;101124.28;105780;1294;19505;-57
2022/10/29 00:43:13;;;;;;;;;6.00;5.00;;;;;21.91;62.62;101117.39;105796;1294;18308;-55
2022/10/29 00:45:40;;;;;;;;;5.00;5.00;;;;;21.91;62.52;101113.65;105815;1288;20299;-54
2022/10/29 00:48:07;;;;;;;;;8.00;6.00;;;;;21.91;62.56;101111.34;105768;1294;19292;-55
2022/10/29 00:50:52;;;;;;;;;5.00;4.00;;;;;21.89;62.35;101110.17;105771;1294;18580;-56
2022/10/29 00:53:20;;;;;;;;;5.00;5.00;;;;;21.90;62.61;101104.10;105790;1278;20073;-54
2022/10/29 00:55:47;;;;;;;;;6.00;5.00;;;;;21.90;62.43;101102.96;105781;1294;21080;-52
2022/10/29 00:58:32;;;;;;;;;8.00;6.00;;;;;21.90;62.46;101096.70;105765;1279;18551;-54
2022/10/29 01:00:59;;;;;;;;;8.00;8.00;;;;;21.90;62.26;101099.19;105811;1294;18707;-54
2022/10/29 01:03:26;;;;;;;;;;;;;;;21.90;62.36;101093.59;105788;1287;19671;-54
2022/10/29 01:05:54;;;;;;;;;6.00;6.00;;;;;21.90;62.44;101089.79;105811;1294;18601;-54
2022/10/29 01:08:21;;;;;;;;;7.00;7.00;;;;;21.90;62.42;101084.29;105805;1271;18845;-57
2022/10/29 01:10:48;;;;;;;;;6.00;5.00;;;;;21.89;62.06;101080.58;105769;1294;19514;-54
2022/10/29 01:13:15;;;;;;;;;6.00;6.00;;;;;21.90;62.12;101079.20;105792;1286;18676;-55
2022/10/29 01:15:43;;;;;;;;;7.00;7.00;;;;;21.90;62.20;101075.24;105828;1294;20470;-57
2022/10/29 01:18:28;;;;;;;;;10.00;10.00;;;;;21.89;62.09;101078.76;105747;1287;22736;-54
2022/10/29 01:20:55;;;;;;;;;5.00;5.00;;;;;21.89;62.24;101070.73;105779;1272;22747;-53
2022/10/29 01:23:22;;;;;;;;;7.00;6.00;;;;;21.89;62.12;101068.43;105795;1289;20043;-56
2022/10/29 01:25:49;;;;;;;;;6.00;5.00;;;;;21.88;61.98;101060.83;105767;1294;19290;-54
2022/10/29 01:28:17;;;;;;;;;9.00;6.00;;;;;21.88;61.92;101064.67;105768;1294;18499;-54
2022/10/29 01:30:44;;;;;;;;;7.00;7.00;;;;;21.89;62.01;101068.18;105812;1294;20749;-53
2022/10/29 01:33:11;;;;;;;;;9.00;9.00;;;;;21.87;61.77;101062.52;105832;1286;22596;-54
2022/10/29 01:35:56;;;;;;;;;5.50;5.50;;;;;21.88;61.65;101064.88;105752;1271;20327;-54
2022/10/29 01:38:24;;;;;;;;;6.00;6.00;;;;;21.88;61.98;101071.22;105749;1279;22250;-54
2022/10/29 01:40:51;;;;;;;;;5.00;5.00;;;;;21.88;61.78;101067.41;105619;1302;21089;-55
2022/10/29 01:43:18;;;;;;;;;8.00;6.00;;;;;21.88;61.84;101061.77;105662;1271;18568;-51
2022/10/29 01:45:45;;;;;;;;;5.50;5.50;;;;;21.89;61.87;101059.14;105733;1295;18508;-54
2022/10/29 01:48:30;;;;;;;;;5.50;5.50;;;;;21.88;61.79;101060.11;105774;1294;19314;-56
2022/10/29 01:50:58;;;;;;;;;6.00;5.00;;;;;21.87;61.80;101060.91;105744;1294;18371;-53
2022/10/29 01:53:25;;;;;;;;;11.00;9.00;;;;;21.87;61.84;101061.66;105764;1286;20195;-56
2022/10/29 01:55:52;;;;;;;;;6.00;6.00;;;;;21.86;61.91;101056.52;105764;1297;22719;-57
2022/10/29 01:58:19;;;;;;;;;5.50;5.50;;;;;21.85;61.84;101053.52;105737;1300;22132;-56
2022/10/29 02:00:47;;;;;;;;;5.00;5.00;;;;;21.84;61.90;101055.98;105794;1294;18765;-54
2022/10/29 02:03:15;;;;;;;;;6.00;6.00;;;;;21.84;61.93;101052.30;105798;1295;23051;-54
2022/10/29 02:05:42;;;;;;;;;8.00;6.00;;;;;21.85;61.58;101051.05;105703;1271;19586;-58
2022/10/29 02:08:09;;;;;;;;;6.00;6.00;;;;;21.85;61.76;101053.19;105762;1288;20167;-52
2022/10/29 02:10:54;;;;;;;;;7.00;6.00;;;;;21.85;61.85;101060.08;105769;1278;19424;-55
2022/10/29 02:13:22;;;;;;;;;6.00;6.00;;;;;21.85;61.80;101060.83;105777;1294;18411;-51
2022/10/29 02:16:07;;;;;;;;;6.00;6.00;;;;;21.83;61.93;101064.08;105809;1272;19071;-54
2022/10/29 02:18:34;;;;;;;;;6.00;6.00;;;;;21.83;61.80;101062.06;105777;1289;20851;-55
2022/10/29 02:21:01;;;;;;;;;11.00;8.50;;;;;21.83;61.68;101058.66;105797;1292;22687;-56
2022/10/29 02:23:46;;;;;;;;;5.50;5.50;;;;;21.84;61.67;101059.17;105757;1297;18603;-53
2022/10/29 02:26:13;;;;;;;;;6.00;5.00;;;;;21.84;61.70;101057.66;105722;1294;19528;-54
2022/10/29 02:28:41;;;;;;;;;8.00;6.00;;;;;21.83;61.81;101053.55;105797;1294;21921;-54
2022/10/29 02:31:08;;;;;;;;;5.00;5.00;;;;;21.83;61.57;101047.02;105761;1272;22797;-54
2022/10/29 02:33:35;;;;;;;;;5.50;5.50;;;;;21.84;61.60;101044.19;105765;1272;21489;-54
2022/10/29 02:36:02;;;;;;;;;8.00;6.00;;;;;21.83;61.84;101044.50;105772;1279;19833;-54
2022/10/29 02:38:30;;;;;;;;;5.50;5.50;;;;;21.83;61.78;101040.98;105773;1294;18715;-52
2022/10/29 02:40:57;;;;;;;;;5.50;5.50;;;;;21.83;61.69;101039.05;105746;1288;19601;-56
2022/10/29 02:43:24;;;;;;;;;6.00;6.00;;;;;21.83;61.67;101043.09;105746;1295;19864;-54
2022/10/29 02:45:57;;;;;;;;;7.50;6.00;;;;;21.83;61.71;101052.34;105775;1298;21094;-56
2022/10/29 02:48:42;;;;;;;;;7.50;6.00;;;;;21.82;61.61;101059.27;105815;1294;19237;-53
2022/10/29 02:51:28;;;;;;;;;7.00;6.00;;;;;21.83;61.64;101052.17;105841;1293;18218;-56
2022/10/29 02:53:55;;;;;;;;;6.00;6.00;;;;;21.83;61.64;101041.98;105830;1293;18517;-54
2022/10/29 02:56:22;;;;;;;;;6.00;5.00;;;;;21.83;61.46;101035.98;105860;1294;19476;-56
2022/10/29 02:59:07;;;;;;;;;8.50;8.50;;;;;21.82;61.42;101046.23;105838;1298;22178;-55
2022/10/29 03:01:35;;;;;;;;;6.00;5.00;;;;;21.82;61.47;101063.88;105788;1294;18704;-53
2022/10/29 03:04:02;;;;;;;;;6.00;6.00;;;;;21.83;61.45;101057.97;105776;1278;19608;-53
2022/10/29 03:06:47;;;;;;;;;;;;;;;21.83;61.26;101056.54;105823;1294;18538;-54
2022/10/29 03:09:14;;;;;;;;;6.00;6.00;;;;;21.81;61.23;101051.22;105774;1294;21349;-53
2022/10/29 03:11:42;;;;;;;;;6.00;6.00;;;;;21.81;61.28;101048.84;105728;1272;23617;-52
2022/10/29 03:14:09;;;;;;;;;12.00;9.00;;;;;21.81;61.51;101046.88;105775;1288;19525;-54
2022/10/29 03:16:36;;;;;;;;;5.00;5.00;;;;;21.82;61.35;101050.46;105729;1286;19240;-54
2022/10/29 03:19:04;;;;;;;;;6.00;6.00;;;;;21.81;61.21;101048.86;105785;1300;19687;-57
2022/10/29 03:21:49;;;;;;;;;5.50;5.00;;;;;21.82;61.19;101051.70;105807;1288;18587;-55
2022/10/29 03:24:16;;;;;;;;;6.00;6.00;;;;;21.82;61.25;101054.05;105784;1288;20364;-55
2022/10/29 03:26:43;;;;;;;;;6.00;6.00;;;;;21.81;61.23;101048.73;105800;1272;25820;-56
2022/10/29 03:29:10;;;;;;;;;6.00;6.00;;;;;21.80;61.36;101051.90;105772;1279;22540;-55
2022/10/29 03:31:56;;;;;;;;;8.00;6.00;;;;;21.81;61.35;101053.67;105765;1294;18588;-56
2022/10/29 03:34:23;;;;;;;;;5.50;5.50;;;;;21.81;61.38;101051.28;105784;1279;20834;-54
2022/10/29 03:36:50;;;;;;;;;5.00;5.00;;;;;21.81;61.05;101050.56;105805;1287;19947;-53
2022/10/29 03:39:17;;;;;;;;;5.50;5.50;;;;;21.81;61.20;101051.58;105778;1294;18824;-55
2022/10/29 03:41:45;;;;;;;;;8.00;8.00;;;;;21.81;61.12;101044.56;105793;1294;20887;-56
2022/10/29 03:44:12;;;;;;;;;9.50;8.00;;;;;21.80;61.10;101051.55;105767;1272;18626;-53
2022/10/29 03:46:57;;;;;;;;;8.00;6.00;;;;;21.81;61.03;101056.84;105829;1276;21087;-51
2022/10/29 03:49:24;;;;;;;;;8.00;8.00;;;;;21.82;60.94;101052.38;105790;1294;19313;-55
2022/10/29 03:52:09;;;;;;;;;6.00;5.00;;;;;21.81;60.80;101045.78;105911;1291;18495;-55
2022/10/29 03:54:36;;;;;;;;;6.00;6.00;;;;;21.81;60.98;101057.59;105854;1271;20971;-53
2022/10/29 03:57:03;;;;;;;;;8.00;6.00;;;;;21.81;60.96;101056.67;105793;1279;21322;-51
2022/10/29 03:59:48;;;;;;;;;6.00;6.00;;;;;21.82;60.80;101060.93;105844;1286;18472;-54
2022/10/29 04:02:16;;;;;;;;;;;;;;;21.81;60.92;101057.08;105756;1294;18730;-56
2022/10/29 04:04:43;;;;;;;;;8.00;6.00;;;;;21.80;60.86;101049.92;105810;1294;20995;-53
2022/10/29 04:07:10;;;;;;;;;5.00;5.00;;;;;21.81;60.87;101049.98;105786;1285;19855;-54
2022/10/29 04:09:37;;;;;;;;;6.00;6.00;;;;;21.82;60.93;101055.20;105809;1294;21980;-52
2022/10/29 04:12:05;;;;;;;;;6.00;6.00;;;;;21.82;60.72;101064.59;105793;1271;19439;-55
2022/10/29 04:14:32;;;;;;;;;8.00;5.00;;;;;21.82;60.86;101067.86;105757;1276;18450;-55
2022/10/29 04:16:59;;;;;;;;;8.00;8.00;;;;;21.81;60.79;101067.11;105780;1278;20027;-54
2022/10/29 04:19:26;;;;;;;;;5.00;5.00;;;;;21.81;60.70;101070.70;105788;1287;20979;-54
2022/10/29 04:21:54;;;;;;;;;6.00;6.00;;;;;21.81;60.77;101063.08;105835;1294;19760;-55
2022/10/29 04:24:39;;;;;;;;;7.00;7.00;;;;;21.81;60.84;101064.31;105842;1279;18638;-55
2022/10/29 04:27:06;;;;;;;;;5.00;5.00;;;;;21.81;60.81;101064.92;105782;1294;19421;-54
2022/10/29 04:29:34;;;;;;;;;7.00;6.00;;;;;21.80;60.70;101063.36;105785;1286;19999;-55
2022/10/29 04:32:01;;;;;;;;;6.00;6.00;;;;;21.80;60.78;101063.40;105778;1285;20084;-56
2022/10/29 04:34:28;;;;;;;;;8.00;8.00;;;;;21.79;60.91;101059.73;105795;1294;19453;-54
2022/10/29 04:36:55;;;;;;;;;7.50;5.50;;;;;21.79;60.78;101060.61;105825;1288;20179;-55
2022/10/29 04:39:23;;;;;;;;;4.00;4.00;;;;;21.79;60.80;101063.34;105774;1286;21896;-56
2022/10/29 04:42:08;;;;;;;;;6.00;6.00;;;;;21.78;60.85;101065.38;105824;1297;19392;-55
2022/10/29 04:44:36;;;;;;;;;5.00;5.00;;;;;21.79;60.79;101062.55;105838;1279;19854;-55
2022/10/29 04:47:03;;;;;;;;;4.00;4.00;;;;;21.80;60.88;101059.54;105797;1294;22674;-56
2022/10/29 04:49:31;;;;;;;;;5.00;5.00;;;;;21.81;60.81;101065.20;105764;1300;21023;-56
2022/10/29 04:51:58;;;;;;;;;6.00;5.00;;;;;21.80;60.81;101069.23;105897;1291;19923;-52
2022/10/29 04:54:25;;;;;;;;;5.00;5.00;;;;;21.79;60.81;101071.65;105816;1288;20211;-54
2022/10/29 04:56:52;;;;;;;;;5.00;5.00;;;;;21.80;60.89;101072.17;105771;1294;19510;-54
2022/10/29 04:59:20;;;;;;;;;5.00;5.00;;;;;21.80;60.91;101070.59;105847;1294;19574;-55
2022/10/29 05:01:47;;;;;;;;;5.00;5.00;;;;;21.81;61.04;101071.23;105781;1287;18521;-56
2022/10/29 05:04:32;;;;;;;;;6.00;6.00;;;;;21.81;60.89;101070.01;105830;1286;21648;-57
2022/10/29 05:06:59;;;;;;;;;5.00;5.00;;;;;21.79;61.01;101068.12;105820;1269;18715;-51
2022/10/29 05:09:27;;;;;;;;;4.50;4.50;;;;;21.79;60.95;101073.74;105781;1285;20253;-53
2022/10/29 05:11:54;;;;;;;;;5.00;5.00;;;;;21.79;61.07;101073.09;105861;1272;19407;-54
2022/10/29 05:14:21;;;;;;;;;5.00;5.00;;;;;21.79;60.99;101069.48;105853;1271;19807;-54
2022/10/29 05:16:48;;;;;;;;;6.00;6.00;;;;;21.79;60.92;101071.73;105808;1279;18703;-54
2022/10/29 05:19:33;;;;;;;;;5.00;5.00;;;;;21.78;60.96;101073.23;105799;1279;19175;-53
2022/10/29 05:22:00;;;;;;;;;5.00;5.00;;;;;21.79;60.98;101071.90;105839;1281;21062;-54
2022/10/29 05:24:28;;;;;;;;;5.00;5.00;;;;;21.79;60.92;101071.39;105821;1279;20052;-56
2022/10/29 05:27:13;;;;;;;;;5.00;5.00;;;;;21.78;61.07;101078.94;105814;1294;19469;-55
2022/10/29 05:29:40;;;;;;;;;4.67;4.67;;;;;21.78;60.84;101084.73;105804;1285;18341;-53
2022/10/29 05:32:07;;;;;;;;;6.00;6.00;;;;;21.78;61.02;101084.56;105814;1286;22812;-56
2022/10/29 05:34:34;;;;;;;;;5.00;5.00;;;;;21.78;60.92;101087.13;105796;1294;22165;-53
2022/10/29 05:37:20;;;;;;;;;6.00;6.00;;;;;21.77;60.87;101089.34;105805;1286;18402;-55
2022/10/29 05:39:47;;;;;;;;;5.00;5.00;;;;;21.77;61.14;101089.25;105829;1279;18552;-54
2022/10/29 05:42:14;;;;;;;;;6.00;6.00;;;;;21.76;61.27;101084.94;105823;1278;20871;-57
2022/10/29 05:44:59;;;;;;;;;6.00;5.00;;;;;21.77;61.12;101086.08;105815;1286;19728;-55
2022/10/29 05:47:27;;;;;;;;;5.00;5.00;;;;;21.77;60.82;101089.17;105826;1272;18571;-54
2022/10/29 05:50:12;;;;;;;;;5.00;5.00;;;;;21.77;61.03;101088.48;105791;1279;23744;-55
2022/10/29 05:52:39;;;;;;;;;4.00;4.00;;;;;21.77;60.83;101083.58;105752;1294;19555;-54
2022/10/29 05:55:07;;;;;;;;;6.00;5.00;;;;;21.77;60.95;101081.57;105789;1281;20365;-56
2022/10/29 05:57:34;;;;;;;;;5.00;5.00;;;;;21.76;60.86;101080.91;105787;1294;21128;-55
2022/10/29 06:00:02;;;;;;;;;5.00;5.00;;;;;21.77;60.94;101076.27;105783;1279;19431;-57
2022/10/29 06:02:29;;;;;;;;;4.00;4.00;;;;;21.77;60.89;101077.74;105768;1294;18709;-56
2022/10/29 06:04:56;;;;;;;;;6.00;6.00;;;;;21.76;61.04;101078.73;105757;1294;19668;-56
2022/10/29 06:07:23;;;;;;;;;8.00;6.00;;;;;21.78;61.00;101077.84;105772;1294;18467;-54
2022/10/29 06:09:51;;;;;;;;;8.00;8.00;;;;;21.80;60.78;101078.71;105807;1286;19547;-54
2022/10/29 06:12:18;;;;;;;;;5.00;5.00;;;;;21.78;60.88;101082.30;105817;1272;19347;-54
2022/10/29 06:14:45;;;;;;;;;5.50;5.50;;;;;21.79;60.78;101085.88;105776;1286;19788;-57
2022/10/29 06:17:30;;;;;;;;;5.50;5.00;;;;;21.81;60.76;101094.88;105787;1294;18536;-56
2022/10/29 06:19:57;;;;;;;;;5.00;5.00;;;;;21.83;61.15;101100.67;105781;1279;20796;-54
2022/10/29 06:22:42;;;;;;;;;6.00;6.00;;;;;21.85;61.33;101110.86;105815;1294;18255;-53
2022/10/29 06:25:10;;;;;;;;;6.00;6.00;;;;;21.86;61.27;101113.31;105817;1294;18842;-56
2022/10/29 06:27:38;;;;;;;;;6.00;6.00;;;;;21.86;61.39;101115.88;105861;1294;20828;-56
2022/10/29 06:30:23;;;;;;;;;12.50;10.00;;;;;21.84;61.52;101121.89;105806;1272;22724;-57
2022/10/29 06:32:50;;;;;;;;;12.00;10.00;;;;;21.83;61.45;101124.73;105774;1294;18880;-54
2022/10/29 06:35:18;;;;;;;;;13.00;12.00;;;;;21.80;61.29;101130.28;105755;1279;22047;-55
2022/10/29 06:37:45;;;;;;;;;12.00;9.50;;;;;21.79;61.17;101132.14;105756;1294;22780;-52
2022/10/29 06:40:12;;;;;;;;;13.00;12.00;;;;;21.77;60.99;101133.06;105765;1294;25639;-56
2022/10/29 06:42:39;;;;;;;;;13.50;12.50;;;;;21.74;60.85;101130.46;105781;1294;20839;-55
2022/10/29 06:45:07;;;;;;;;;13.00;13.00;;;;;21.71;60.76;101130.25;105757;1294;22796;-53
2022/10/29 06:47:34;;;;;;;;;16.00;14.00;;;;;21.69;60.50;101133.76;105720;1282;18761;-52
2022/10/29 06:50:19;;;;;;;;;17.00;13.00;;;;;21.67;60.53;101143.27;105769;1294;19402;-52
2022/10/29 06:52:55;;;;;;;;;14.00;13.00;;;;;21.63;60.39;101145.87;105748;1294;20051;-54
2022/10/29 06:55:22;;;;;;;;;17.50;13.00;;;;;21.67;60.21;101152.95;105588;1271;20154;-56
2022/10/29 06:58:08;;;;;;;;;14.00;14.00;;;;;21.74;60.16;101156.36;105783;1285;19334;-54
2022/10/29 07:00:35;;;;;;;;;14.50;11.50;;;;;21.78;60.41;101153.62;105810;1294;18491;-55
2022/10/29 07:03:03;;;;;;;;;13.00;13.00;;;;;21.81;60.31;101147.49;105780;1294;20203;-54
2022/10/29 07:05:49;;;;;;;;;61.00;50.00;;;;;21.87;60.48;101145.89;105747;1278;19281;-53
2022/10/29 07:08:16;;;;;;;;;49.00;44.00;;;;;21.92;60.99;101143.77;105816;1294;18458;-53
2022/10/29 07:10:43;;;;;;;;;48.50;43.00;;;;;21.95;61.26;101138.98;105751;1294;22047;-53
2022/10/29 07:13:10;;;;;;;;;42.00;40.00;;;;;21.95;61.57;101135.75;105777;1294;19459;-53
2022/10/29 07:15:38;;;;;;;;;34.00;33.00;;;;;21.95;61.86;101134.27;105842;1292;18574;-54
2022/10/29 07:18:05;;;;;;;;;31.00;30.00;;;;;21.97;61.99;101136.34;105681;1288;19136;-56
2022/10/29 07:20:50;;;;;;;;;68.00;54.00;;;;;22.04;62.18;101137.08;105722;1272;19309;-52
2022/10/29 07:23:35;;;;;;;;;80.00;61.00;;;;;22.03;62.28;101136.77;105724;1277;18759;-53
2022/10/29 07:26:02;;;;;;;;;89.50;63.00;;;;;22.02;62.24;101138.76;105760;1294;18944;-52
2022/10/29 07:28:29;;;;;;;;;118.00;97.00;;;;;22.02;62.13;101140.15;105719;1285;21202;-55
2022/10/29 07:30:57;;;;;;;;;120.00;96.00;;;;;22.03;62.26;101143.27;105726;1279;18824;-52
2022/10/29 07:33:41;;;;;;;;;169.00;126.00;;;;;22.03;62.48;101142.27;105691;1272;18695;-57
2022/10/29 07:36:27;;;;;;;;;168.00;129.00;;;;;22.02;62.65;101142.40;105762;1271;19311;-55
2022/10/29 07:38:54;;;;;;;;;117.00;87.00;;;;;22.00;62.60;101147.16;105769;1294;20666;-53
2022/10/29 07:41:39;;;;;;;;;117.00;82.00;;;;;21.99;62.58;101159.60;105743;1294;18687;-52
2022/10/29 07:44:06;;;;;;;;;110.00;79.00;;;;;21.97;62.54;101155.86;105745;1279;20788;-53
2022/10/29 07:46:34;;;;;;;;;96.00;66.00;;;;;21.97;62.86;101152.45;105790;1271;20309;-52
2022/10/29 07:49:01;;;;;;;;;82.00;62.00;;;;;21.96;62.93;101150.41;105678;1279;20394;-56
2022/10/29 07:51:28;;;;;;;;;73.00;53.00;;;;;21.95;62.75;101151.78;105767;1294;22079;-55
2022/10/29 07:53:55;;;;;;;;;65.00;49.00;;;;;21.93;62.73;101147.38;105768;1294;18861;-54
2022/10/29 07:56:23;;;;;;;;;62.00;46.00;;;;;21.89;62.35;101139.52;105819;1294;18942;-55
2022/10/29 07:58:50;;;;;;;;;63.00;47.00;;;;;21.82;62.21;101134.61;105732;1279;19654;-53
2022/10/29 08:01:17;;;;;;;;;48.00;39.00;;;;;21.79;61.95;101139.13;105683;1271;94522;-56
2022/10/29 08:03:44;;;;;;;;;;;;;;;21.72;61.79;101145.31;105783;1294;18177;-55
2022/10/29 08:06:12;;;;;;;;;33.00;29.00;;;;;21.71;61.92;101152.23;105806;1271;20798;-55
2022/10/29 08:08:39;;;;;;;;;32.00;29.00;;;;;21.72;61.70;101151.77;105651;1286;19475;-55
2022/10/29 08:11:06;;;;;;;;;28.00;24.00;;;;;21.70;61.57;101154.55;105861;1281;18919;-54
2022/10/29 08:13:34;;;;;;;;;31.00;24.50;;;;;21.67;61.30;101157.52;105730;1294;27215;-55
2022/10/29 08:16:19;;;;;;;;;29.00;24.00;;;;;21.64;61.28;101154.70;105672;1278;18691;-57
2022/10/29 08:18:46;;;;;;;;;21.00;21.00;;;;;21.63;61.34;101160.05;105697;1288;20351;-56
2022/10/29 08:21:14;;;;;;;;;25.00;22.00;;;;;21.62;61.04;101162.20;105754;1294;19677;-55
2022/10/29 08:23:41;;;;;;;;;24.00;22.00;;;;;21.61;60.97;101173.05;105773;1285;18814;-55
2022/10/29 08:26:26;;;;;;;;;23.50;21.00;;;;;21.60;60.91;101184.05;105775;1301;18978;-58
2022/10/29 08:29:11;;;;;;;;;25.00;21.00;;;;;21.58;60.87;101195.15;105796;1294;22836;-56
2022/10/29 08:31:39;;;;;;;;;20.00;18.50;;;;;21.58;60.88;101196.45;105818;1278;21875;-57
2022/10/29 08:34:07;;;;;;;;;21.00;18.50;;;;;21.57;60.57;101186.89;105783;1279;20090;-57
2022/10/29 08:36:34;;;;;;;;;16.00;14.00;;;;;21.58;60.64;101182.46;105760;1286;19488;-57
2022/10/29 08:39:02;;;;;;;;;16.50;16.50;;;;;21.56;60.55;101180.27;105786;1279;19984;-54
2022/10/29 08:41:29;;;;;;;;;13.00;13.00;;;;;21.55;60.45;101185.30;105768;1297;18608;-58
2022/10/29 08:43:56;;;;;;;;;20.00;17.00;;;;;21.58;60.44;101181.92;105742;1278;20968;-56
2022/10/29 08:46:23;;;;;;;;;22.00;20.00;;;;;21.65;60.44;101174.83;105748;1294;22981;-57
2022/10/29 08:49:08;;;;;;;;;20.50;18.00;;;;;21.70;60.21;101172.36;105783;1294;18677;-55
2022/10/29 08:51:35;;;;;;;;;21.00;18.00;;;;;21.73;60.10;101182.86;105765;1296;19658;-55
2022/10/29 08:54:21;;;;;;;;;19.50;17.50;;;;;21.69;60.08;101184.84;105786;1294;18647;-58
2022/10/29 08:56:48;;;;;;;;;22.00;21.00;;;;;21.72;60.01;101191.91;105719;1294;18927;-57
2022/10/29 08:59:15;;;;;;;;;24.00;21.00;;;;;21.70;60.08;101198.27;105744;1295;19489;-56
2022/10/29 09:01:42;;;;;;;;;22.00;21.00;;;;;21.66;60.13;101198.31;105756;1279;22208;-56
2022/10/29 09:04:10;;;;;;;;;25.33;21.67;;;;;21.64;60.05;101195.24;105767;1278;18610;-54
2022/10/29 09:06:37;;;;;;;;;22.00;20.00;;;;;21.61;60.29;101194.50;105746;1294;20485;-54
2022/10/29 09:09:22;;;;;;;;;22.00;19.00;;;;;21.59;60.39;101211.42;105793;1294;18572;-56
2022/10/29 09:11:50;;;;;;;;;20.33;20.00;;;;;21.60;60.38;101226.09;105817;1294;19010;-55
2022/10/29 09:14:17;;;;;;;;;20.00;18.00;;;;;21.58;60.40;101233.52;105842;1297;19514;-54
2022/10/29 09:17:02;;;;;;;;;14.00;14.00;;;;;21.57;60.35;101234.91;105751;1279;19566;-54
2022/10/29 09:19:47;;;;;;;;;18.00;17.00;;;;;21.59;60.26;101232.39;105801;1291;24115;-55
2022/10/29 09:22:14;;;;;;;;;19.50;18.00;;;;;21.58;60.26;101229.05;105780;1279;21109;-56
2022/10/29 09:24:41;;;;;;;;;17.00;16.00;;;;;21.58;60.27;101227.58;105768;1294;18671;-55
2022/10/29 09:27:26;;;;;;;;;21.00;15.00;;;;;21.55;60.22;101227.16;105813;1297;18648;-53
2022/10/29 09:30:12;;;;;;;;;21.00;18.00;;;;;21.56;60.37;101226.73;105775;1288;19284;-53
2022/10/29 09:32:39;;;;;;;;;15.50;13.50;;;;;21.55;60.38;101228.77;105816;1293;18521;-51
2022/10/29 09:35:24;;;;;;;;;16.00;16.00;;;;;21.56;60.24;101223.10;105844;1294;18521;-54
2022/10/29 09:38:09;;;;;;;;;18.50;16.00;;;;;21.54;60.22;101222.61;105798;1301;22319;-54
2022/10/29 09:40:54;;;;;;;;;17.00;16.00;;;;;21.55;60.11;101228.60;105780;1294;18556;-57
2022/10/29 09:43:40;;;;;;;;;13.00;12.00;;;;;21.52;60.26;101222.08;105846;1279;18786;-53
2022/10/29 09:46:07;;;;;;;;;16.00;16.00;;;;;21.52;60.13;101230.84;105777;1294;20814;-57
2022/10/29 09:48:34;;;;;;;;;14.00;13.00;;;;;21.52;60.15;101230.27;105768;1294;18811;-56
2022/10/29 09:51:20;;;;;;;;;16.00;16.00;;;;;21.51;59.98;101234.30;105817;1294;21834;-51
2022/10/29 09:53:48;;;;;;;;;14.00;13.00;;;;;21.51;59.97;101229.92;105827;1286;20784;-56
2022/10/29 09:56:15;;;;;;;;;14.00;14.00;;;;;21.50;59.94;101227.30;105803;1279;19048;-50
2022/10/29 09:58:43;;;;;;;;;13.00;13.00;;;;;21.50;59.95;101222.70;105726;1279;21391;-54
2022/10/29 10:01:10;;;;;;;;;14.00;14.00;;;;;21.51;59.89;101218.73;105764;1288;21864;-54
2022/10/29 10:03:40;;;;;;;;;14.00;13.00;;;;;21.50;59.96;101218.61;105772;1285;22260;-53
2022/10/29 10:06:08;;;;;;;;;;;;;;;21.52;59.97;101221.52;105743;1278;18829;-55
2022/10/29 10:08:35;;;;;;;;;16.00;13.00;;;;;21.40;60.03;101223.45;105785;1294;21261;-53
2022/10/29 10:11:03;;;;;;;;;16.00;16.00;;;;;21.34;60.28;101221.66;105792;1294;18420;-57
2022/10/29 10:13:31;;;;;;;;;16.00;16.00;;;;;21.41;60.11;101223.89;105806;1279;20081;-56
2022/10/29 10:15:58;;;;;;;;;14.00;14.00;;;;;21.45;59.94;101220.80;105630;1294;19500;-54
2022/10/29 10:18:25;;;;;;;;;16.00;13.00;;;;;21.42;59.81;101222.41;105667;1285;22454;-55
2022/10/29 10:20:52;;;;;;;;;18.00;16.00;;;;;21.38;59.54;101228.05;105766;1288;22620;-54
2022/10/29 10:23:20;;;;;;;;;13.00;12.50;;;;;21.38;59.27;101236.73;105748;1286;19184;-54
2022/10/29 10:25:47;;;;;;;;;20.00;16.00;;;;;21.29;58.98;101240.05;105732;1294;18823;-52
2022/10/29 10:28:14;;;;;;;;;18.00;16.00;;;;;21.23;58.81;101233.39;105772;1281;20434;-53
2022/10/29 10:30:59;;;;;;;;;16.00;14.00;;;;;21.19;58.58;101235.38;105806;1272;19689;-55
2022/10/29 10:33:26;;;;;;;;;13.50;13.00;;;;;21.16;58.00;101228.36;105750;1282;22152;-55
2022/10/29 10:35:53;;;;;;;;;12.00;10.00;;;;;21.19;58.05;101229.38;105798;1271;18667;-51
2022/10/29 10:38:21;;;;;;;;;13.00;12.50;;;;;21.15;57.79;101232.10;105838;1294;22331;-51
2022/10/29 10:41:06;;;;;;;;;12.00;12.00;;;;;21.11;57.72;101231.11;105820;1294;18555;-54
2022/10/29 10:43:33;;;;;;;;;16.00;14.00;;;;;21.09;57.54;101229.15;105778;1271;21031;-56
2022/10/29 10:46:00;;;;;;;;;13.50;13.00;;;;;21.08;57.49;101231.23;105768;1272;22828;-53
2022/10/29 10:48:27;;;;;;;;;15.00;14.00;;;;;21.12;57.22;101235.03;105803;1288;18545;-55
2022/10/29 10:50:55;;;;;;;;;12.00;10.00;;;;;21.10;57.12;101234.82;105764;1285;22657;-52
2022/10/29 10:53:22;;;;;;;;;15.50;14.00;;;;;21.15;57.19;101240.89;105839;1287;20738;-52
2022/10/29 10:55:49;;;;;;;;;16.00;13.00;;;;;21.18;57.18;101246.21;105785;1294;18819;-54
2022/10/29 10:58:16;;;;;;;;;12.50;12.00;;;;;21.18;56.93;101239.95;105807;1294;18915;-51
2022/10/29 11:00:44;;;;;;;;;18.00;16.00;;;;;21.15;57.20;101227.05;105788;1294;22858;-55
2022/10/29 11:03:11;;;;;;;;;15.00;15.00;;;;;21.15;56.91;101224.37;105730;1297;18691;-54
2022/10/29 11:05:38;;;;;;;;;16.00;15.00;;;;;21.13;56.92;101219.98;105781;1289;18891;-56
2022/10/29 11:08:05;;;;;;;;;14.00;12.00;;;;;21.07;56.96;101214.41;105795;1294;19308;-55
2022/10/29 11:10:33;;;;;;;;;15.00;13.00;;;;;20.99;56.84;101223.83;105744;1294;18823;-57
2022/10/29 11:13:00;;;;;;;;;15.00;13.00;;;;;20.99;56.89;101237.52;105803;1280;20084;-55
2022/10/29 11:15:27;;;;;;;;;12.00;12.00;;;;;20.90;57.21;101238.83;105668;1271;22259;-57
2022/10/29 11:17:54;;;;;;;;;15.00;12.00;;;;;20.93;57.86;101236.00;105739;1293;18544;-54
2022/10/29 11:20:22;;;;;;;;;13.00;13.00;;;;;20.95;57.64;101239.19;105770;1278;18695;-55
2022/10/29 11:22:49;;;;;;;;;16.00;16.00;;;;;20.94;57.61;101230.46;105757;1297;21860;-52
2022/10/29 11:25:16;;;;;;;;;15.00;13.00;;;;;20.93;57.49;101227.63;105714;1279;18597;-56
2022/10/29 11:27:43;;;;;;;;;16.50;15.00;;;;;20.91;57.35;101226.80;105648;1279;18609;-55